Latest Weather Observations for Varanus Island

IDW60801

Issued at 4:43 pm WST Tuesday 22 October 2019 (issued every 10 minutes, with the page automatically refreshed every 10 minutes)

About weather observations | Map of weather stations | Latest weather observations for WA | Other Formats
Station Details ID: 200100 Name: VARANUS ISLAND Lat: -20.66 Lon: 115.58 Height: 24.0 m
Data from the previous 72 hours. | See also: Recent months at Varanus Island
Date/Time
WST
Temp
°C
App
Temp
°C
Dew
Point
°C
Rel
Hum
%
Delta-T
°C
Wind Press
QNH
hPa
Press
MSL
hPa
Rain since
9am
mm
Dir  Spd
km/h
Gust
km/h
Spd
kts
Gust
kts
22/04:30pm 30.8 30.9 20.4 54 6.9 WSW 20 24 11 13 1010.5 - 0.0
22/04:00pm 31.1 31.6 21.9 58 6.2 W 22 30 12 16 1010.6 - 0.0
22/03:30pm 30.7 31.8 22.0 59 5.9 W 19 24 10 13 1010.7 - 0.0
22/03:00pm 31.2 32.4 22.2 58 6.1 W 19 26 10 14 1010.8 1010.7 0.0
22/02:30pm 30.4 32.5 23.1 65 5.0 W 17 19 9 10 1011.2 - 0.0
22/02:00pm 29.8 30.7 21.5 61 5.6 SW 19 20 10 11 1011.6 - 0.0
22/01:30pm 30.7 31.6 20.9 56 6.5 SSW 17 20 9 11 1011.9 - 0.0
22/01:00pm 32.0 33.0 20.3 50 7.8 SSW 15 19 8 10 1012.4 - 0.0
22/12:30pm 30.2 31.5 21.6 60 5.8 SSW 17 20 9 11 1012.9 - 0.0
22/12:00pm 30.7 31.9 20.0 52 7.1 SSW 13 17 7 9 1013.4 1013.3 0.0
22/11:30am 29.4 30.9 19.7 56 6.3 SSW 11 15 6 8 1013.8 - 0.0
22/11:00am 29.8 31.5 20.1 56 6.4 S 11 13 6 7 1014.3 - 0.0
22/10:30am 31.1 29.2 15.1 38 9.8 SSE 19 22 10 12 1014.5 - 0.0
22/09:00am 28.3 26.0 16.6 49 7.3 SSE 24 30 13 16 1015.0 1014.9 0.0
22/08:30am 27.7 26.4 18.1 56 6.1 SSE 22 28 12 15 1014.9 - 0.0
22/08:00am 27.3 27.0 19.6 62 5.0 SSE 20 24 11 13 1014.9 - 0.0
22/07:30am 26.7 26.7 20.1 67 4.3 S 20 24 11 13 1014.8 - 0.0
22/07:00am 26.1 26.3 20.2 70 3.9 S 19 24 10 13 1014.5 - 0.0
22/06:30am 25.6 24.8 19.3 68 4.1 S 22 28 12 15 1014.3 - 0.0
22/06:00am 25.3 24.5 20.1 73 3.4 S 24 28 13 15 1013.9 1013.8 0.0
22/05:30am 25.1 24.8 20.4 75 3.1 S 22 28 12 15 1013.8 - 0.0
22/05:00am 25.2 25.5 20.7 76 3.0 S 20 24 11 13 1013.7 - 0.0
22/04:30am 24.8 25.4 21.1 80 2.4 S 19 22 10 12 1013.6 - 0.0
22/04:00am 24.9 26.4 21.2 80 2.4 SE 15 19 8 10 1014.0 - 0.0
22/03:30am 25.1 26.0 20.8 77 2.8 SSE 17 20 9 11 1013.8 - 0.0
22/03:00am 25.2 26.1 20.9 77 2.8 S 17 20 9 11 1013.8 1013.7 0.0
22/02:30am 25.4 25.6 20.6 75 3.1 S 20 24 11 13 1013.9 - 0.0
22/02:00am 25.9 25.1 20.9 74 3.3 SSW 26 32 14 17 1013.9 - 0.0
22/01:30am 25.9 24.4 20.9 74 3.3 SSW 30 35 16 19 1014.1 - 0.0
22/01:00am 26.0 24.6 21.2 75 3.2 SSW 30 37 16 20 1014.4 - 0.0
22/12:30am 26.1 25.1 21.3 75 3.2 SSW 28 35 15 19 1014.5 - 0.0
22/12:00am 26.0 26.0 21.7 77 2.9 SSW 24 30 13 16 1014.8 1014.7 0.0
 
Date/Time
WST
Temp
°C
App
Temp
°C
Dew
Point
°C
Rel
Hum
%
Delta-T
°C
Wind Press
QNH
hPa
Press
MSL
hPa
Rain since
9am
mm
Dir  Spd
km/h
Gust
km/h
Spd
kts
Gust
kts
21/11:30pm 25.6 25.8 22.1 81 2.3 SSW 24 30 13 16 1015.0 - 0.0
21/11:00pm 25.6 24.7 21.5 78 2.7 SSW 28 35 15 19 1015.1 - 0.0
21/10:30pm 25.8 24.9 21.5 77 2.9 SW 28 32 15 17 1015.2 - 0.0
21/10:00pm 25.8 25.6 21.2 76 3.0 SW 24 30 13 16 1015.2 - 0.0
21/09:30pm 26.1 25.7 20.9 73 3.4 SW 24 30 13 16 1015.2 - 0.0
21/09:00pm 26.1 25.7 20.9 73 3.4 WSW 24 28 13 15 1015.0 1014.9 0.0
21/08:30pm 26.3 26.5 21.3 74 3.3 WSW 22 24 12 13 1014.7 - 0.0
21/08:00pm 26.5 26.1 21.0 72 3.6 W 24 28 13 15 1014.6 - 0.0
21/07:30pm 26.7 26.2 20.8 70 3.9 W 24 30 13 16 1014.3 - 0.0
21/07:00pm 26.9 26.5 21.0 70 3.9 W 24 28 13 15 1013.8 - 0.0
21/06:30pm 26.9 26.3 21.2 71 3.8 W 26 30 14 16 1013.5 - 0.0
21/06:00pm 27.4 26.9 21.4 70 4.0 WNW 26 28 14 15 1013.2 1013.1 0.0
21/05:30pm 28.0 28.3 21.5 67 4.3 WNW 22 30 12 16 1013.1 - 0.0
21/05:00pm 28.3 29.1 21.8 68 4.4 WNW 20 26 11 14 1013.1 - 0.0
21/04:30pm 28.7 29.2 21.2 64 5.0 NW 20 24 11 13 1013.2 - 0.0
21/04:00pm 29.3 29.2 20.7 59 5.7 NW 22 26 12 14 1013.2 - 0.0
21/03:30pm 30.4 29.1 18.2 48 7.8 NNW 22 28 12 15 1013.2 - 0.0
21/02:30pm 31.2 30.6 17.5 44 8.7 NNW 17 20 9 11 1013.8 - 0.0
21/02:00pm 30.2 28.9 16.9 44 8.4 N 19 22 10 12 1014.0 - 0.0
21/01:30pm 30.4 29.5 16.8 44 8.6 NNE 17 20 9 11 1014.1 - 0.0
21/01:00pm 30.5 31.4 17.6 46 8.2 E 9 13 5 7 1014.5 - 0.0
21/12:30pm 30.2 30.6 17.3 46 8.2 ESE 11 13 6 7 1014.8 - 0.0
21/12:00pm 30.1 31.4 20.1 55 6.6 S 13 17 7 9 1014.9 1014.8 0.0
21/11:30am 30.1 32.0 22.0 62 5.5 S 15 17 8 9 1015.0 - 0.0
21/11:00am 28.3 29.7 21.8 68 4.4 S 17 20 9 11 1015.3 - 0.0
21/10:30am 28.0 28.5 21.1 66 4.6 S 20 24 11 13 1015.5 - 0.0
21/10:00am 28.3 29.1 21.3 65 4.7 S 19 22 10 12 1015.6 - 0.0
21/09:30am 27.5 28.6 21.3 69 4.1 S 17 24 9 13 1015.6 - 0.0
21/09:00am 26.7 27.1 21.0 71 3.8 S 20 28 11 15 1015.5 1015.4 0.0
21/08:30am 26.5 26.0 20.8 71 3.8 S 24 32 13 17 1015.1 - 0.0
21/08:00am 26.2 26.0 21.2 74 3.3 SSW 24 30 13 16 1015.0 - 0.0
21/07:30am 25.7 24.9 20.9 75 3.2 SSW 26 33 14 18 1014.8 - 0.0
21/07:00am 25.3 24.1 20.8 76 3.0 SSW 28 32 15 17 1014.7 - 0.0
21/06:30am 25.0 23.6 20.5 76 2.9 SSW 28 35 15 19 1014.7 - 0.0
21/06:00am 24.8 24.6 21.3 81 2.3 SSW 24 28 13 15 1014.4 - 0.0
21/05:30am 24.8 24.6 21.3 81 2.3 SW 24 28 13 15 1014.2 - 0.0
21/04:30am 24.6 23.9 21.1 81 2.3 SW 26 28 14 15 1013.9 - 0.0
21/03:30am 25.0 24.8 21.3 80 2.4 SW 24 28 13 15 1013.8 - 0.0
21/03:00am 24.5 24.3 21.2 82 2.2 WSW 24 28 13 15 1013.9 1013.8 0.0
21/02:30am 24.7 24.5 21.2 81 2.3 WSW 24 28 13 15 1013.8 - 0.0
21/02:00am 24.8 24.8 20.9 79 2.6 WSW 22 26 12 14 1014.2 - 0.0
21/01:30am 25.1 25.7 21.0 78 2.7 WSW 19 20 10 11 1014.4 - 0.0
21/01:00am 25.1 26.2 21.2 79 2.6 WSW 17 19 9 10 1014.6 - 0.0
21/12:30am 25.0 25.6 21.1 79 2.6 W 19 20 10 11 1014.6 - 0.0
21/12:00am 25.0 25.6 21.1 79 2.6 W 19 22 10 12 1014.8 1014.7 0.0
 
Date/Time
WST
Temp
°C
App
Temp
°C
Dew
Point
°C
Rel
Hum
%
Delta-T
°C
Wind Press
QNH
hPa
Press
MSL
hPa
Rain since
9am
mm
Dir  Spd
km/h
Gust
km/h
Spd
kts
Gust
kts
20/11:30pm 25.1 25.5 21.0 78 2.7 WSW 20 22 11 12 1015.1 - 0.0
20/11:00pm 25.1 26.1 21.0 78 2.7 W 17 20 9 11 1015.3 - 0.0
20/10:30pm 25.1 25.6 20.8 77 2.8 W 19 22 10 12 1015.3 - 0.0
20/10:00pm 25.3 26.0 20.5 75 3.1 W 17 19 9 10 1015.4 - 0.0
20/09:30pm 25.6 27.0 20.4 73 3.4 WNW 13 15 7 8 1015.3 - 0.0
20/09:00pm 26.0 26.5 19.2 66 4.4 W 15 17 8 9 1015.0 1014.9 0.0
20/08:30pm 26.2 26.0 19.3 65 4.4 WSW 19 22 10 12 1014.6 - 0.0
20/08:00pm 26.3 25.1 18.4 61 5.0 WSW 22 24 12 13 1014.2 - 0.0
20/07:30pm 26.3 24.5 18.7 63 4.9 SW 26 28 14 15 1013.8 - 0.0
20/07:00pm 26.4 25.7 20.3 69 4.0 SW 24 28 13 15 1013.5 - 0.0
20/06:30pm 26.7 26.8 20.3 68 4.2 SW 20 22 11 12 1013.4 - 0.0
20/06:00pm 27.5 29.9 21.5 70 4.0 WSW 11 13 6 7 1013.4 1013.3 0.0
20/05:30pm 28.5 31.0 21.8 67 4.5 WSW 11 13 6 7 1013.2 - 0.0
20/05:00pm 28.2 30.8 22.0 69 4.2 W 11 15 6 8 1013.1 - 0.0
20/04:30pm 29.3 32.0 22.8 68 4.4 W 13 17 7 9 1013.1 - 0.0
20/04:00pm 29.1 30.4 19.4 55 6.3 W 11 13 6 7 1013.2 - 0.0
20/03:30pm 28.6 31.0 21.6 66 4.7 WSW 11 13 6 7 1013.4 - 0.0
20/03:00pm 27.9 30.5 21.2 67 4.5 WSW 9 13 5 7 1013.6 1013.5 0.0
20/02:30pm 27.7 30.2 21.0 67 4.4 SW 9 11 5 6 1014.0 - 0.0
20/02:00pm 27.6 29.9 21.4 69 4.1 SW 11 13 6 7 1014.1 - 0.0
20/01:30pm 27.2 29.0 21.2 69 4.0 SW 13 15 7 8 1014.3 - 0.0
20/01:00pm 28.5 30.3 21.8 67 4.5 SSW 15 19 8 10 1014.5 - 0.0
20/12:30pm 27.8 28.9 21.3 67 4.3 S 17 20 9 11 1014.7 - 0.0
20/12:00pm 27.6 28.7 21.2 68 4.3 S 17 22 9 12 1015.0 1014.9 0.0
20/11:30am 27.3 27.8 20.1 64 4.7 S 17 22 9 12 1015.2 - 0.0
20/11:00am 27.6 28.4 20.7 66 4.6 S 17 22 9 12 1015.5 - 0.0
20/10:30am 27.3 27.4 20.4 66 4.5 S 20 24 11 13 1015.7 - 0.0
20/10:00am 27.2 27.3 20.3 66 4.5 SSW 20 28 11 15 1015.8 - 0.0
20/09:30am 26.5 26.0 19.9 67 4.3 S 22 28 12 15 1015.9 - 0.0
20/09:00am 26.3 25.9 20.2 69 4.0 S 22 28 12 15 1016.0 1015.9 0.0
20/08:30am 26.0 25.2 20.1 70 3.8 SSW 24 28 13 15 1015.8 - 0.0
20/08:00am 25.6 25.2 20.2 72 3.5 SSW 22 30 12 16 1015.8 - 0.0
20/07:30am 25.2 25.0 20.5 75 3.1 SSW 22 26 12 14 1015.8 - 0.0
20/07:00am 24.7 24.5 20.6 78 2.7 SSW 22 24 12 13 1015.8 - 0.0
20/06:30am 24.4 24.6 20.5 79 2.5 SSW 20 26 11 14 1015.7 - 0.0
20/06:00am 24.2 24.4 20.5 80 2.4 SSW 20 24 11 13 1015.6 1015.5 0.0
20/05:30am 24.1 24.6 20.8 82 2.2 SSW 19 22 10 12 1015.3 - 0.0
20/05:00am 24.0 23.7 20.3 80 2.4 SSW 22 28 12 15 1014.9 - 0.0
20/04:30am 24.0 25.0 21.1 84 1.9 SSW 17 20 9 11 1014.8 - 0.0
20/04:00am 24.0 24.8 20.7 82 2.2 SSW 17 20 9 11 1014.7 - 0.0
20/03:30am 23.9 25.4 20.6 82 2.2 SW 13 15 7 8 1014.7 - 0.0
20/03:00am 24.1 25.0 20.8 82 2.2 SW 17 19 9 10 1014.6 1014.5 0.0
20/02:30am 23.8 25.0 20.7 83 2.0 WSW 15 17 8 9 1014.6 - 0.0
20/02:00am 23.9 25.4 20.6 82 2.2 WSW 13 15 7 8 1014.8 - 0.0
20/01:30am 24.0 25.0 20.3 80 2.4 WSW 15 17 8 9 1014.8 - 0.0
20/01:00am 24.1 24.6 20.0 78 2.7 WSW 17 19 9 10 1015.2 - 0.0
20/12:30am 24.2 25.0 19.9 77 2.8 WSW 15 19 8 10 1015.3 - 0.0
20/12:00am 24.2 25.4 19.9 77 2.8 WSW 13 15 7 8 1015.4 1015.3 0.0
 
Date/Time
WST
Temp
°C
App
Temp
°C
Dew
Point
°C
Rel
Hum
%
Delta-T
°C
Wind Press
QNH
hPa
Press
MSL
hPa
Rain since
9am
mm
Dir  Spd
km/h
Gust
km/h
Spd
kts
Gust
kts
19/11:30pm 24.2 25.0 19.9 77 2.8 WSW 15 17 8 9 1015.5 - 0.0
19/11:00pm 24.3 24.9 20.2 78 2.7 WSW 17 20 9 11 1015.7 - 0.0
19/10:30pm 24.3 24.9 20.2 78 2.7 W 17 20 9 11 1015.6 - 0.0
19/10:00pm 24.5 25.0 20.0 76 2.9 W 17 19 9 10 1015.6 - 0.0
19/09:30pm 24.7 25.2 20.0 75 3.0 W 17 20 9 11 1015.3 - 0.0
19/09:00pm 24.8 24.8 19.8 74 3.2 W 19 22 10 12 1015.2 1015.1 0.0
19/08:30pm 24.8 24.5 19.2 71 3.6 W 19 22 10 12 1015.1 - 0.0
19/08:00pm 25.1 25.7 19.5 71 3.6 WSW 15 19 8 10 1014.7 - 0.0
19/07:30pm 25.2 24.5 18.6 67 4.2 WSW 20 24 11 13 1014.2 - 0.0
19/07:00pm 25.7 24.3 17.9 62 4.9 WSW 22 28 12 15 1013.8 - 0.0
19/06:30pm 26.0 24.3 18.9 65 4.5 WSW 26 30 14 16 1013.5 - 0.0
19/06:00pm 26.8 25.3 19.4 64 4.8 WSW 26 32 14 17 1013.2 1013.1 0.0
19/05:30pm 27.1 25.6 20.9 69 4.1 W 30 35 16 19 1012.8 - 0.0
19/05:00pm 27.5 26.6 20.6 66 4.5 W 26 30 14 16 1012.5 - 0.0

Other formats

Comma delimited format used in spreadsheet applications
http://www.bom.gov.au/fwo/IDW60801/IDW60801.95303.axf

JavaScript Object Notation format (JSON) in row-major order
http://www.bom.gov.au/fwo/IDW60801/IDW60801.95303.json

Data quality

Most of these data are generated automatically and are frequently updated. Quality checks on data are not normally performed. It is possible for incorrect values to appear. Refer to information at About Latest Weather Observations and please check the disclaimer before using these data.